Grittleton 10k

 

This is a sortable and searchable table.

When browsing with a mobile device, you can slide the page to show all the data.

Provisional Results

If there are any queries then please do not hesitate to contact us at This email address is being protected from spambots. You need JavaScript enabled to view it.

  Downloadable results

Grittleton 10 k
Overall Place Gun Time Name Club Bib Gender Gender Place Category Category Place Pace Chip Time
1 34:34.3 Chris McMillan 266 M 1 MSnr 1 3:27/K 34:33.4
2 35:01.0 Aaron Wilson City of Salisbury 221 M 2 MSnr 2 3:30/K 34:59.4
3 35:19.5 Guy Watts 27 M 3 MV40 1 3:31/K 35:10.2
4 35:54.8 Stuart Temple Slinn Allstars 109 M 4 MSnr 3 3:35/K 35:48.5
5 35:57.3 Ruth Barnes Avon Valley Runners 231 F 1 FV35 1 3:36/K 35:56.0
6 36:17.5 Michael Milstead The Smart Club 121 M 5 MSnr 4 3:38/K 36:16.5
7 36:58.0 Justin Peters Avon Valley Runners 232 M 6 MV40 2 3:42/K 36:56.5
8 37:11.8 Mike Mansfield Gloucester AC 270 M 7 MV40 3 3:43/K 37:09.4
9 37:41.6 Andrew Duncan 196 M 8 MSnr 5 3:46/K 37:39.6
10 37:46.5 Andrew Palmer 73 M 9 MSnr 6 3:47/K 37:45.5
11 37:56.9 Sam West Bitton Road Runners 213 M 10 MV40 4 3:48/K 37:55.4
12 38:03.7 Andrew Gow 269 M 11 MSnr 7 3:48/K 38:01.4
13 38:06.6 Jason Bidwell Frampton Cotterell Harriers 23 M 12 MV40 5 3:48/K 38:04.3
14 38:20.5 Oliver Webb 98 M 13 MSnr 8 3:50/K 38:18.0
15 38:29.5 Gary Eagle Frome RC 149 M 14 MV50 1 3:51/K 38:27.8
16 38:45.7 Matvey Vikhrov 227 M 15 MSnr 9 3:52/K 38:36.4
17 38:46.2 James Butcher 76 M 16 MSnr 10 3:52/K 38:41.3
18 38:49.7 David Vaudin Team Bath AC 237 M 17 MV50 2 3:53/K 38:47.1
19 38:56.5 Jamie Turner 14 M 18 MV40 6 3:53/K 38:53.9
20 38:58.1 Jo Thompson Team Bath AC 165 F 2 FV55 1 3:54/K 38:56.6
21 39:04.3 John Butterworth 262 M 19 MV50 3 3:54/K 39:02.1
22 39:05.4 Darren Day 72 M 20 MSnr 11 3:54/K 38:59.4
23 39:06.4 Steve Forsyth 233 M 21 MSnr 12 3:54/K 39:03.5
24 39:07.1 Stephen Higgins Pewsey Vale RC 151 M 22 MV40 7 3:55/K 39:05.4
25 39:16.5 David Johnson Collingwood AC 128 M 23 MSnr 13 3:55/K 39:14.0
26 39:34.6 Paul Hendry Newbury AC 150 M 24 MV40 8 3:57/K 39:31.0
27 39:40.5 Steve Newcastle Avon Valley Runners 283 M 25 MV50 4 3:58/K 39:40.5
28 39:49.1 Nicci Clay Team Kennet 268 F 3 FSnr 1 3:59/K 39:45.3
29 39:55.5 Jamie Frayling 189 M 26 MSnr 14 3:59/K 39:53.5
30 39:58.9 Beverley Whitfield Brisrol & West 245 F 4 FV35 2 4:00/K 39:56.2
31 40:00.9 Fee Maycock Belgrave Harriers 264 F 5 FV45 1 4:00/K 39:59.1
32 40:04.5 Adrian Hurren Corsham RC 242 M 27 MV50 5 4:00/K 40:00.2
33 40:06.1 Peter England Frampton Cotterell Harriers 30 M 28 MV60 1 4:00/K 40:00.8
34 40:09.9 Mark Poolman 202 M 29 MSnr 15 4:01/K 40:05.7
35 40:14.3 Fiona Price Avon Valley Runners 124 F 6 FV45 2 4:01/K 40:12.1
36 40:20.5 Richard Pitt Thame Hare & Hounds 220 M 30 MV60 2 4:02/K 40:17.1
37 40:27.4 James Atwill PD Fitness 184 M 31 MSnr 16 4:02/K 40:24.8
38 40:34.1 Bruce Sellers 285 M 32 MV50 6 4:03/K 40:31.4
39 40:52.0 Anita Mellodew Avon Valley Runners 131 F 7 FV45 3 4:05/K 40:49.8
40 41:01.9 Jeff Bird 99 M 33 MSnr 17 4:06/K 40:57.3
41 41:14.8 Matt Cain PD Fitness 174 M 34 MSnr 18 4:07/K 41:12.3
42 41:38.2 Jack Sprange PD Fitness 182 M 35 MSnr 19 4:09/K 41:34.8
43 41:52.9 Will Matthews 275 M 36 MSnr 20 4:11/K 41:49.7
44 42:18.2 Michael Bryant Highworth RC 263 M 37 MV50 7 4:13/K 42:11.5
45 42:19.8 Kate Halls Avon Valley Runners 212 F 8 FV35 3 4:14/K 42:16.7
46 42:33.3 David Florence 19 M 38 MV40 9 4:15/K 42:29.7
47 42:36.1 Wayne Ellis Bitton Road Runners 247 M 39 MSnr 21 4:15/K 42:33.2
48 42:40.4 Gemma Collings Chippenham Harriers 206 F 9 FV35 4 4:16/K 42:36.3
49 43:01.5 Angus Craig Tetbury Royals 207 M 40 MV40 10 4:18/K 42:56.4
50 43:04.9 Jon Leng 277 M 41 MSnr 22 4:18/K 43:00.0
51 43:05.1 Mark Barnett Chippenham Harriers 137 M 42 MV40 11 4:18/K 43:00.9
52 43:08.3 Mark Adams 251 M 43 MV40 12 4:18/K 43:01.7
53 43:25.9 Iain Paddon 243 M 44 MV40 13 4:20/K 43:20.5
54 43:41.6 Rob Feild Chippenham Harriers 282 M 45 MSnr 23 4:22/K 43:37.8
55 43:50.8 Peter Jeffery Gloucester AC 250 M 46 MV50 8 4:23/K 43:45.8
56 44:06.7 Karl Overton 70 M 47 MV40 14 4:24/K 44:00.7
57 44:09.9 William Couzens 85 M 48 MSnr 24 4:24/K 44:04.5
58 44:12.9 Mike Thompson Team Bath AC 164 M 49 MV50 9 4:25/K 44:09.7
59 44:22.7 Mark McCormick Chippenham Harriers 38 M 50 MSnr 25 4:26/K 44:15.1
60 44:36.7 Mark Briggs 203 M 51 MSnr 26 4:27/K 44:32.0
61 44:42.4 Oliver Le Cluse Avon Valley Runners 116 M 52 MV40 15 4:28/K 44:36.5
62 44:56.9 Elaine Hughes 157 F 10 FSnr 2 4:29/K 44:51.1
63 44:58.8 Anne Parnell 125 F 11 FV35 5 4:29/K 44:53.8
64 45:08.6 Rob Walpole 7 M 53 MV40 16 4:30/K 45:03.2
65 45:18.4 Pip Temple 148 M 54 MSnr 27 4:31/K 45:05.5
66 45:20.6 Alison Graham Corsham RC 50 F 12 FV45 4 4:31/K 45:13.0
67 45:22.0 Stephen Shotton 15 M 55 MV40 17 4:32/K 45:15.6
68 45:56.7 Jamie Dullaghan 265 M 56 MSnr 28 4:35/K 45:46.1
69 45:58.4 George Royle PD Fitness 181 M 57 MSnr 29 4:35/K 45:54.0
70 46:03.5 Jessica Sloan Newbury AC 129 F 13 FSnr 3 4:35/K 45:53.8
71 46:19.5 Aly Sloane City of Salisbury 160 F 14 FV55 2 4:37/K 46:12.3
72 46:24.5 Matthew Herbert 123 M 58 MV40 18 4:38/K 46:17.6
73 46:27.6 David Matthews 37 M 59 MV40 19 4:38/K 46:15.2
74 46:40.5 Mark Edwards Cirencester AC 248 M 60 MV40 20 4:39/K 46:26.3
75 46:45.3 Jason Tillen 97 M 61 MV40 21 4:40/K 46:36.0
76 46:46.1 David Goodall 191 M 62 MV40 22 4:40/K 46:37.6
77 46:49.4 Peter Chivers 215 M 63 MV50 10 4:40/K 46:43.1
78 47:00.4 Sarah Jewers Avon Valley Runners 74 F 15 FV35 6 4:41/K 46:53.3
79 47:14.2 Michael Giles Calne SMaRTT 84 M 64 MV50 11 4:43/K 47:09.8
80 47:26.9 James Rennie Hogweed Trotters 246 M 65 MV40 23 4:44/K 47:18.1
81 47:27.6 Rog Davis Team Kennet 83 M 66 MV40 24 4:44/K 47:23.9
82 47:39.8 Emma Hines 81 F 16 FV35 7 4:45/K 47:29.9
83 47:43.3 Claire Dawson 69 F 17 FV55 3 4:46/K 47:35.3
84 47:50.5 Matthew Rose Chippenham Harriers 127 M 67 MV40 25 4:46/K 47:42.2
85 47:55.1 Brian Emms 249 M 68 MV60 3 4:46/K 47:44.5
86 47:59.7 Nick Reeves PD Fitness 180 M 69 MSnr 30 4:48/K 47:55.2
87 48:00.0 Hamish Lambert PD Fitness 175 M 70 MSnr 31 4:48/K 47:55.9
88 48:02.5 Sarah Hall 122 F 18 FSnr 4 4:47/K 47:47.6
89 48:10.1 Zina Marchant Team Bath AC 216 F 19 FV55 4 4:48/K 48:02.1
90 48:10.7 Andy Frances 2 M 71 MV40 26 4:47/K 47:49.6
91 48:15.4 Arthur Watt 241 M 72 MV40 27 4:49/K 48:07.0
92 48:16.2 Cheryl Hurren Corsham RC 42 F 20 FV45 5 4:49/K 48:09.1
93 48:29.6 Michelle Coveney 40 F 21 FV35 8 4:50/K 48:21.3
94 48:32.3 Alister Hill 34 M 73 MV40 28 4:50/K 48:15.7
95 48:36.0 Paul Lowe 244 M 74 MV40 29 4:50/K 48:22.7
96 48:59.3 Ollie Wild PD Fitness 172 M 75 MSnr 32 4:53/K 48:54.1
97 49:08.2 Jon Davey Abbey Flyers 235 M 76 MSnr 33 4:54/K 48:58.7
98 49:08.4 Jeremy Moore Abbey Flyers 228 M 77 MV50 12 4:54/K 48:58.6
99 49:08.6 Kate Makinson 252 F 22 FV35 9 4:54/K 48:58.7
100 49:08.7 Dan Cresswell 55 M 78 MSnr 34 4:54/K 49:02.9
101 49:10.4 Jennifer O' Connor Avon Valley Runners 166 F 23 FV45 6 4:54/K 49:02.4
102 49:11.2 Alan Tate Avon Valley Runners 167 M 79 MV50 13 4:54/K 49:03.7
103 49:19.7 David Gawthorpe 47 M 80 MV50 14 4:55/K 49:07.6
104 49:22.8 Julie Fowler Hogweed Trotters 198 F 24 FV35 10 4:56/K 49:17.8
105 49:33.6 Matt Goodall 192 M 81 MSnr 35 4:57/K 49:25.2
106 49:34.8 Ali Atkinson Avon Valley Runners 75 F 25 FV45 7 4:57/K 49:27.5
107 49:37.4 Mair Chivers 214 F 26 FV45 8 4:57/K 49:30.9
108 49:42.7 Paul Arlott 229 M 82 MV40 30 4:57/K 49:32.4
109 49:43.0 Caroline Ferris 90 F 27 FSnr 5 4:57/K 49:34.8
110 49:43.1 Josh Tabley 281 M 83 MSnr 36 4:56/K 49:15.7
111 49:46.2 Phillippa Stoop 253 F 28 FV35 11 4:57/K 49:33.3
112 50:18.7 Phillip Rockliffe Avon Valley Runners 10 M 84 MV50 15 5:01/K 50:10.4
113 50:45.8 David Tanner 199 M 85 MSnr 37 5:04/K 50:38.6
114 50:46.1 Caspar Lacey 44 M 86 MSnr 38 5:03/K 50:31.4
115 51:04.0 Rosie Poustie 194 F 29 FSnr 6 5:06/K 50:58.4
116 51:08.2 Kathryn Tiley Frampton Cotterell Harriers 12 F 30 FSnr 7 5:06/K 50:57.3
117 51:46.7 Antony Ball Dursley Running Club 240 M 87 MV40 31 5:10/K 51:35.7
118 51:49.2 Amanda Timbrell Avon Valley Runners 209 F 31 FV35 12 5:10/K 51:40.7
119 51:57.0 Matthew Bowker 56 M 88 MSnr 39 5:09/K 51:32.0
120 52:12.7 Alan Tompson 94 M 89 MV40 32 5:12/K 52:00.8
121 52:16.8 Amber Vater 17 F 32 FSnr 8 5:12/K 51:55.0
122 52:20.1 Nick Maryon 136 M 90 MV50 16 5:13/K 52:11.2
123 52:40.5 Sheena Ali Westbury Harriers 226 F 33 FSnr 9 5:15/K 52:32.9
124 52:44.8 Jessica Moore Avon Valley Runners 104 F 34 FV45 9 5:15/K 52:27.9
125 52:45.4 Richard Flesher 115 M 91 MSnr 40 5:14/K 52:19.2
126 52:48.2 James Faller Avon Valley Runners 284 M 92 MSnr 41 5:16/K 52:39.5
127 52:58.7 Tamsyn Attiwell 39 F 35 FV45 10 5:17/K 52:45.3
128 53:14.3 John Dobson 61 M 93 MV40 33 5:18/K 53:01.4
129 53:17.5 Taylor Pook 147 F 36 FSnr 10 5:18/K 53:00.0
130 53:20.7 Lara Tompson 95 F 37 FSnr 11 5:19/K 53:08.8
131 53:25.4 Clare Allen 272 F 38 FV35 13 5:19/K 53:10.1
132 53:37.1 Katie Caterpillar Halton Trail Runners 193 F 39 FV35 14 5:20/K 53:18.9
133 53:39.0 Brian Lewis 267 M 94 MV40 34 5:20/K 53:22.9
134 53:49.7 Caroline Clark 257 F 40 FV35 15 5:21/K 53:30.5
135 53:54.9 Pip Brady PD Fitness 183 F 41 FV45 11 5:21/K 53:30.3
136 54:06.5 Louise Chamberlain 258 F 42 FV55 5 5:23/K 53:47.2
137 54:10.2 Steve Brady PD Fitness 186 M 95 MV40 35 5:23/K 53:45.8
138 54:13.2 Emma Joyce 88 F 43 FSnr 12 5:25/K 54:06.4
139 54:20.9 Julianna Risdale Slinn Allstars 195 F 44 FV45 12 5:24/K 54:04.4
140 54:21.0 Terry Cripps Slinn Allstars 133 M 96 MV60 4 5:24/K 54:03.3
141 54:22.8 Laura Firth 278 F 45 FV45 13 5:25/K 54:07.7
142 54:24.4 Jo Newbery 118 F 46 FSnr 13 5:25/K 54:07.8
143 54:24.5 Mark Newbery 143 M 97 MV60 5 5:25/K 54:08.1
144 54:29.2 Andy Reid Team Bath AC 155 M 98 MV60 6 5:26/K 54:18.6
145 54:34.8 John Spencer 35 M 99 MV60 7 5:26/K 54:23.3
146 54:41.3 Stephen Cuthbert 205 M 100 MV40 36 5:26/K 54:20.0
147 54:48.1 Sarah Keech 45 F 47 FSnr 14 5:27/K 54:33.6
148 54:48.8 Toby Kushner 222 M 101 MSnr 42 5:28/K 54:36.3
149 54:49.1 Elaine Pook 146 F 48 FV45 14 5:27/K 54:31.4
150 54:49.1 Steve Merryweather 261 M 102 MSnr 43 5:27/K 54:32.4
151 54:52.3 Katie Florence 20 F 49 FV35 16 5:28/K 54:37.3
152 54:53.8 David Flemington Thornbury RC 65 M 103 MV50 17 5:28/K 54:38.3
153 54:54.2 Paul Burgess Frampton Cotterell Harriers 276 M 104 MV60 8 5:27/K 54:26.6
154 55:00.5 Ross Pinnuck 219 M 105 MSnr 44 5:28/K 54:38.7
155 55:01.9 Stephanie Smallman Newbury AC 43 F 50 FV35 17 5:29/K 54:49.4
156 55:25.9 Joseph Jones 161 M 106 MV50 18 5:31/K 55:13.8
157 55:31.9 Georgina Fahey Bitton Road Runners 49 F 51 FSnr 15 5:32/K 55:16.1
158 55:42.7 Darren Price PD Fitness 185 M 107 MSnr 45 5:33/K 55:31.1
159 56:05.6 Vicky Dawes 188 F 52 FV35 18 5:35/K 55:46.0
160 56:07.7 Kevin Porter 168 M 108 MV40 37 5:36/K 55:57.1
161 56:17.0 Nigel Chamberlain 259 M 109 MV50 19 5:35/K 55:53.1
162 56:25.2 Fiona Denton 52 F 53 FV45 15 5:37/K 56:12.5
163 56:36.9 Lou Martin 190 F 54 FV35 19 5:38/K 56:18.7
164 56:38.7 Ami Gilfoy PD Fitness 178 F 55 FSnr 16 5:37/K 56:12.0
165 56:48.2 Graham Bryant 117 M 110 MV40 38 5:39/K 56:31.9
166 57:13.2 Catherine Glover 139 F 56 FV35 20 5:42/K 56:59.4
167 57:15.9 Ashley Exler 279 M 111 MSnr 46 5:42/K 57:04.7
168 57:19.0 Terry Kingston 140 M 112 MV40 39 5:42/K 56:55.8
169 57:35.2 Neil Palmer 64 M 113 MV40 40 5:43/K 57:09.8
170 57:38.0 Geoff Fry 93 M 114 MV60 9 5:44/K 57:19.3
171 57:46.7 Alice Waldron 67 F 57 FV55 6 5:45/K 57:28.9
172 57:57.9 Rhianon Wakely 154 F 58 FSnr 17 5:45/K 57:30.7
173 57:58.4 Alastair Pride 153 M 115 MV40 41 5:45/K 57:30.5
174 58:04.9 Rochelle Ravenscroft 36 F 59 FV35 21 5:47/K 57:51.6
175 58:09.7 Ian Banks 273 M 116 MV50 20 5:47/K 57:54.0
176 58:19.9 Jo Motto 112 F 60 FV45 16 5:48/K 58:04.9
177 58:20.4 Mark Holmes Slinn Allstars 152 M 117 MV40 42 5:48/K 57:57.1
178 58:25.9 Coral Nash Hogweed Trotters 271 F 61 FV45 17 5:49/K 58:10.4
179 58:27.9 Emma Cosentino Chippenham Harriers 4 F 62 FV35 22 5:50/K 58:16.8
180 58:30.7 Mark McIntyre 29 M 118 MV40 43 5:50/K 58:19.1
181 58:33.3 Simon Webber 238 M 119 MV40 44 5:49/K 58:08.5
182 58:34.3 Louisa Haines Chippenham Harriers 80 F 63 FV35 23 5:49/K 58:08.8
183 58:37.9 Angela Lawrence 130 F 64 FV35 24 5:51/K 58:26.5
184 58:39.2 Susan Lattanzio 58 F 65 FV45 18 5:49/K 58:10.8
185 58:43.5 Sarah Webber 89 F 66 FV35 25 5:51/K 58:28.0
186 58:43.8 Alex Johnson Abbey Flyers 286 M 120 MSnr 47 5:51/K 58:27.4
187 59:03.9 Karen Eke Northampton Road Runners 100 F 67 FV45 19 5:53/K 58:45.1
188 59:04.6 Dawn Jordan Chippenham Harriers 62 F 68 FV45 20 5:52/K 58:39.6
189 59:04.6 Marie Freeth Chippenham Harriers 156 F 69 FV35 26 5:52/K 58:39.8
190 59:13.1 Bob Faller Avon Valley Runners 234 M 121 MV50 21 5:54/K 59:04.1
191 59:18.9 Anita Lloyd 141 F 70 FV45 21 5:55/K 59:05.0
192 59:22.4 Heather Matthews 274 F 71 FV35 27 5:55/K 59:05.4
193 59:26.3 Stuart Dryden PD Fitness 171 M 122 MSnr 48 5:56/K 59:22.7
194 59:35.1 Richard Panes PD Fitness 170 M 123 MV50 22 5:55/K 59:11.1
195 59:36.4 Heather Stokes PD Fitness 176 F 72 FV55 7 5:55/K 59:11.5
196 59:36.6 Lewis Smith 256 M 124 MSnr 49 5:55/K 59:10.0
197 59:57.3 David Denton 51 M 125 MV50 23 5:58/K 59:44.8
198 1:00:19.9 Susie Besford 101 F 73 FV45 22 6:00/K 1:00:00.1
199 1:00:27.8 Jessica Thomas 210 F 74 FSnr 18 6:02/K 1:00:18.1
200 1:00:30.5 Veena Harpham Corsham RC 21 F 75 FV35 28 6:01/K 1:00:10.9
201 1:00:36.7 Debbie Huxtable PD Fitness 169 F 76 FV35 29 6:02/K 1:00:22.1
202 1:00:38.2 Marie Louise-Rielly PD Fitness 173 F 77 FV35 30 6:02/K 1:00:23.6
203 1:00:46.3 Bernadette Panes PD Fitness 179 F 78 FV45 23 6:02/K 1:00:21.6
204 1:01:02.9 Lisa Chapman 60 F 79 FV45 24 6:04/K 1:00:35.0
205 1:01:07.7 Harry Coates 11 M 126 MSnr 50 6:05/K 1:00:47.3
206 1:01:11.8 Paula Phillips 96 F 80 FV55 8 6:05/K 1:00:52.7
207 1:01:15.1 Kimberley Curtis 211 F 81 FV35 31 6:07/K 1:01:05.1
208 1:01:18.6 Katherine Sugg 68 F 82 FV45 25 6:05/K 1:00:50.7
209 1:02:00.1 Andy Barnard Hampshire Fire and Rescue Service 224 M 127 MSnr 51 6:10/K 1:01:41.8
210 1:02:00.1 Karen Warwick Slinn Allstars 225 F 83 FV35 32 6:10/K 1:01:41.9
211 1:02:10.5 Kevin Dyer Westbury Running Club 230 M 128 MV40 45 6:12/K 1:01:59.9
212 1:02:10.6 Tara Collings 218 M 129 MSnr 52 6:11/K 1:01:49.4
213 1:02:11.4 Maria Wicks Chippenham Harriers 134 F 84 FV35 33 6:11/K 1:01:46.0
214 1:02:41.7 Maggie Frayling 53 F 85 FV45 26 6:13/K 1:02:12.7
215 1:02:42.1 Lorraine Norris Hogweed Trotters 13 F 86 FV45 27 6:15/K 1:02:33.9
216 1:02:53.6 Karen Hall Chippenham Harriers 26 F 87 FV45 28 6:15/K 1:02:27.8
217 1:03:01.0 Hughie Turner 63 M 130 MV60 10 6:16/K 1:02:38.4
218 1:03:06.8 Peter Ciappi 280 M 131 MV60 11 6:16/K 1:02:40.2
219 1:03:16.1 Linsey Park 200 F 88 FV35 34 6:17/K 1:02:51.7
220 1:03:16.1 David Rogers 201 M 132 MSnr 53 6:17/K 1:02:51.6
221 1:03:18.6 Amy Duckett 107 F 89 FSnr 19 6:18/K 1:03:02.8
222 1:03:24.2 Danni Butcher Calne RC 108 F 90 FSnr 20 6:18/K 1:03:01.6
223 1:03:32.7 Yasmin Rome 66 F 91 FSnr 21 6:21/K 1:03:25.7
224 1:03:49.9 Sue Chapman Chippenham Harriers 111 F 92 FV35 35 6:22/K 1:03:38.9
225 1:03:58.3 Alyson Bryant Chippenham Harriers 9 F 93 FV35 36 6:21/K 1:03:32.6
226 1:03:59.9 Trudi Webber 239 F 94 FV45 29 6:21/K 1:03:34.8
227 1:04:29.1 Lisa Sandford Chippenham Harriers 197 F 95 FV45 30 6:25/K 1:04:11.7
228 1:05:26.1 Miriam Sawyer Women On The Run 204 F 96 FV55 9 6:31/K 1:05:07.7
229 1:05:31.8 Lauren Holt 158 F 97 FSnr 22 6:30/K 1:05:03.9
230 1:05:31.8 Karyn Phelps 87 F 98 FV45 31 6:31/K 1:05:08.1
231 1:05:55.5 Gail Lewis 48 F 99 FV45 32 6:34/K 1:05:36.5
232 1:06:27.1 Victoria Baker 16 F 100 FV35 37 6:37/K 1:06:06.6
233 1:06:27.4 Sarah George Corsham RC 105 F 101 FSnr 23 6:37/K 1:06:06.4
234 1:06:36.6 Janice Rambridge Team Bath AC 208 F 102 FV55 10 6:38/K 1:06:18.5
235 1:06:39.7 Jo Vaughan Abbey Flyers 138 F 103 FSnr 24 6:37/K 1:06:13.1
236 1:06:40.0 Nicky Alway Frampton Cotterell Harriers 187 F 104 FV45 33 6:38/K 1:06:19.3
237 1:06:40.0 Hazel Kibble Abbey Flyers 77 F 105 FSnr 25 6:37/K 1:06:13.4
238 1:07:22.8 Vicky Iddon 57 M 133 MV50 24 6:43/K 1:07:08.6
239 1:07:29.4 Catherine Thompson Chippenham Harriers 132 F 106 FV35 38 6:39/K 1:06:33.4
240 1:07:32.1 Margaret Gordon 79 F 107 FV45 34 6:44/K 1:07:17.9
241 1:08:14.1 Mandy Brown 103 F 108 FV35 39 6:47/K 1:07:52.4
242 1:08:14.5 Dov Turner 102 M 134 MV40 46 6:47/K 1:07:52.7
243 1:08:34.9 Alice Wright 24 F 109 FSnr 26 6:49/K 1:08:14.5
244 1:08:34.9 Sarah Tully 25 F 110 FSnr 27 6:49/K 1:08:14.7
245 1:08:50.9 Jane McHale Fetch Everyone 46 F 111 FV55 11 6:50/K 1:08:23.0
246 1:08:54.9 Catherine Thomas Chippenham Harriers 135 F 112 FV35 40 6:52/K 1:08:37.8
247 1:08:59.2 Dylan Sumbler 236 M 135 MSnr 54 6:52/K 1:08:39.0
248 1:09:07.6 Lynda Ormandy Corsham RC 22 F 113 FV35 41 6:53/K 1:08:46.5
249 1:09:56.8 Katharine Burrett 91 F 114 FV35 42 6:57/K 1:09:33.7
250 1:10:50.3 Heather Weyman 86 F 115 FSnr 28 7:03/K 1:10:26.6
251 1:12:24.2 Kim Spencer 145 F 116 FV45 35 7:12/K 1:12:01.5
252 1:13:30.4 Catherine McIntyre 28 F 117 FV45 36 7:20/K 1:13:18.2
253 1:19:02.6 Yvonne Mockridge 260 F 118 FV45 37 7:52/K 1:18:44.6
Overall Place Gun Time Name Club Bib Gender Gender Place Category Category Place Pace Chip Time

 

What's My Time